Time;durP1;ratioP1;P1;durP2;ratioP2;P2;SDS_P1;SDS_P2;PMS_P1;PMS_P2;Temp;Humidity;BMP_temperature;BMP_pressure;BME280_temperature;BME280_humidity;BME280_pressure;Samples;Min_cycle;Max_cycle;Signal;HPM_P1;HPM_P2
2022/07/28 00:00:27;;;;;;;4.15;0.98;;;;;;;;;;4981477;28;20092;-84
2022/07/28 00:02:53;;;;;;;3.60;1.13;;;;;;;;;;4989013;28;20132;-84
2022/07/28 00:05:18;;;;;;;4.75;1.17;;;;;;;;;;4997300;28;20050;-84
2022/07/28 00:07:44;;;;;;;3.17;1.02;;;;;;;;;;4988580;28;20031;-84
2022/07/28 00:10:10;;;;;;;4.25;1.20;;;;;;;;;;4989395;28;20054;-84
2022/07/28 00:12:35;;;;;;;3.53;1.23;;;;;;;;;;4988854;28;20769;-83
2022/07/28 00:15:01;;;;;;;4.38;1.10;;;;;;;;;;4986332;28;20041;-83
2022/07/28 00:17:26;;;;;;;4.13;1.42;;;;;;;;;;4988033;28;20040;-84
2022/07/28 00:19:52;;;;;;;8.40;1.13;;;;;;;;;;4987665;28;20048;-83
2022/07/28 00:22:18;;;;;;;4.63;1.00;;;;;;;;;;4995766;28;20515;-84
2022/07/28 00:24:43;;;;;;;3.65;1.05;;;;;;;;;;4992270;28;20113;-83
2022/07/28 00:27:09;;;;;;;3.47;1.10;;;;;;;;;;4981830;28;20539;-83
2022/07/28 00:29:34;;;;;;;2.47;0.93;;;;;;;;;;4988973;28;20497;-83
2022/07/28 00:32:00;;;;;;;2.97;1.17;;;;;;;;;;4981549;28;20073;-83
2022/07/28 00:34:26;;;;;;;2.85;0.85;;;;;;;;;;4981701;28;20034;-83
2022/07/28 00:36:54;;;;;;;3.45;1.10;;;;;;;;;;4980291;28;20393;-84
2022/07/28 00:39:19;;;;;;;4.47;0.98;;;;;;;;;;5005028;28;20505;-84
2022/07/28 00:41:44;;;;;;;4.43;0.90;;;;;;;;;;4981168;28;20049;-84
2022/07/28 00:44:10;;;;;;;2.28;0.98;;;;;;;;;;4982606;28;20490;-83
2022/07/28 00:46:35;;;;;;;3.55;0.98;;;;;;;;;;4986200;28;20038;-84
2022/07/28 00:49:01;;;;;;;4.35;0.98;;;;;;;;;;5003231;28;20523;-83
2022/07/28 00:51:27;;;;;;;5.32;1.40;;;;;;;;;;4977412;28;20093;-83
2022/07/28 00:53:56;;;;;;;3.58;1.20;;;;;;;;;;4976014;28;20038;-84
2022/07/28 00:56:21;;;;;;;4.40;1.17;;;;;;;;;;4979551;28;20494;-84
2022/07/28 00:58:47;;;;;;;3.08;0.90;;;;;;;;;;4993541;28;20054;-84
2022/07/28 01:01:16;;;;;;;3.65;1.05;;;;;;;;;;4979452;28;20066;-84
2022/07/28 01:03:43;;;;;;;9.48;1.33;;;;;;;;;;4991212;28;20058;-84
2022/07/28 01:06:26;;;;;;;3.58;1.10;;;;;;;;;;4979124;28;20703;-84
2022/07/28 01:09:00;;;;;;;4.32;1.10;;;;;;;;;;4993573;28;20033;-84
2022/07/28 01:11:34;;;;;;;5.15;1.10;;;;;;;;;;4992710;28;20073;-84
2022/07/28 01:14:00;;;;;;;3.03;1.10;;;;;;;;;;5003625;28;20109;-85
2022/07/28 01:16:27;;;;;;;3.70;1.02;;;;;;;;;;4995269;28;20042;-84
2022/07/28 01:19:01;;;;;;;3.13;1.15;;;;;;;;;;4981516;28;20477;-84
2022/07/28 01:21:32;;;;;;;5.10;1.25;;;;;;;;;;5003994;28;20153;-85
2022/07/28 01:24:03;;;;;;;3.95;1.17;;;;;;;;;;5004052;28;20034;-85
2022/07/28 01:26:42;;;;;;;3.17;1.30;;;;;;;;;;4996852;28;20162;-84
2022/07/28 01:29:33;;;;;;;3.97;1.23;;;;;;;;;;4996746;28;20060;-84
2022/07/28 01:32:05;;;;;;;3.92;1.23;;;;;;;;;;5001821;28;20030;-85
2022/07/28 01:34:36;;;;;;;4.03;1.50;;;;;;;;;;4975294;28;20206;-84
2022/07/28 01:37:06;;;;;;;6.43;1.23;;;;;;;;;;5008774;28;20072;-84
2022/07/28 01:39:34;;;;;;;4.22;1.20;;;;;;;;;;4972814;28;20043;-84
2022/07/28 01:41:59;;;;;;;;;;;;;;;;;;4993357;28;20041;-84
2022/07/28 01:44:25;;;;;;;2.95;1.15;;;;;;;;;;5010877;28;19917;-85
2022/07/28 01:46:51;;;;;;;3.67;1.20;;;;;;;;;;4964945;28;20027;-84
2022/07/28 01:49:18;;;;;;;3.05;1.10;;;;;;;;;;4990438;28;20039;-84
2022/07/28 01:51:45;;;;;;;3.85;1.35;;;;;;;;;;4961396;28;20042;-84
2022/07/28 01:54:11;;;;;;;4.30;1.20;;;;;;;;;;4993076;28;20038;-84
2022/07/28 01:56:38;;;;;;;3.92;1.17;;;;;;;;;;4974676;28;20370;-84
2022/07/28 01:59:08;;;;;;;3.78;1.30;;;;;;;;;;5010547;28;20382;-84
2022/07/28 02:01:35;;;;;;;3.53;1.20;;;;;;;;;;4961205;28;20399;-84
2022/07/28 02:04:03;;;;;;;3.67;1.27;;;;;;;;;;4999823;28;20033;-84
2022/07/28 02:06:29;;;;;;;5.93;1.38;;;;;;;;;;4976832;28;20054;-84
2022/07/28 02:08:55;;;;;;;4.78;1.73;;;;;;;;;;4989811;28;20035;-84
2022/07/28 02:11:40;;;;;;;4.97;1.45;;;;;;;;;;4994095;28;20045;-84
2022/07/28 02:14:07;;;;;;;5.28;1.20;;;;;;;;;;4986695;28;20493;-84
2022/07/28 02:16:32;;;;;;;4.82;1.45;;;;;;;;;;4994977;28;20038;-84
2022/07/28 02:18:58;;;;;;;4.30;1.48;;;;;;;;;;4982304;28;20512;-84
2022/07/28 02:21:25;;;;;;;3.53;1.33;;;;;;;;;;4984801;28;20623;-84
2022/07/28 02:23:51;;;;;;;4.78;1.50;;;;;;;;;;4978686;28;20035;-84
2022/07/28 02:26:17;;;;;;;3.05;0.95;;;;;;;;;;4987744;28;20037;-85
2022/07/28 02:28:45;;;;;;;4.85;1.35;;;;;;;;;;4985773;28;20120;-84
2022/07/28 02:31:18;;;;;;;3.80;1.20;;;;;;;;;;4978693;28;20144;-84
2022/07/28 02:33:44;;;;;;;7.63;1.40;;;;;;;;;;4996755;28;20485;-84
2022/07/28 02:36:14;;;;;;;5.07;1.60;;;;;;;;;;4986154;28;20034;-83
2022/07/28 02:38:45;;;;;;;4.57;1.38;;;;;;;;;;4984964;28;20048;-83
2022/07/28 02:41:15;;;;;;;3.30;1.10;;;;;;;;;;4981905;28;20397;-84
2022/07/28 02:43:46;;;;;;;4.95;1.33;;;;;;;;;;4982435;28;20034;-84
2022/07/28 02:46:13;;;;;;;3.50;1.20;;;;;;;;;;4978002;28;20585;-84
2022/07/28 02:48:42;;;;;;;5.10;1.20;;;;;;;;;;4997614;28;20041;-83
2022/07/28 02:51:08;;;;;;;7.35;1.40;;;;;;;;;;4984553;28;20038;-83
2022/07/28 02:53:34;;;;;;;3.08;1.20;;;;;;;;;;4980176;28;20026;-83
2022/07/28 02:55:59;;;;;;;4.78;1.98;;;;;;;;;;4978024;28;20447;-83
2022/07/28 02:58:26;;;;;;;4.32;1.55;;;;;;;;;;4992330;28;20485;-84
2022/07/28 03:00:55;;;;;;;5.82;1.35;;;;;;;;;;4978993;28;20031;-84
2022/07/28 03:03:21;;;;;;;6.03;1.30;;;;;;;;;;4997226;28;20042;-84
2022/07/28 03:05:47;;;;;;;5.38;1.65;;;;;;;;;;4992688;28;20447;-84
2022/07/28 03:08:14;;;;;;;3.70;1.60;;;;;;;;;;4993575;28;20382;-84
2022/07/28 03:10:43;;;;;;;3.60;1.48;;;;;;;;;;4991780;28;20469;-84
2022/07/28 03:13:08;;;;;;;6.97;2.13;;;;;;;;;;4981617;28;20034;-85
2022/07/28 03:15:35;;;;;;;3.97;1.42;;;;;;;;;;4992178;28;20042;-85
2022/07/28 03:18:02;;;;;;;4.47;1.60;;;;;;;;;;4993452;28;20173;-86
2022/07/28 03:20:27;;;;;;;5.07;1.37;;;;;;;;;;4986511;28;20574;-86
2022/07/28 03:22:54;;;;;;;4.40;1.63;;;;;;;;;;4979474;28;20034;-85
2022/07/28 03:25:27;;;;;;;4.55;1.25;;;;;;;;;;4984320;28;20177;-85
2022/07/28 03:27:53;;;;;;;5.82;1.65;;;;;;;;;;4988381;28;20042;-85
2022/07/28 03:30:23;;;;;;;5.20;1.50;;;;;;;;;;4972858;28;20531;-85
2022/07/28 03:32:54;;;;;;;3.28;1.30;;;;;;;;;;4992453;28;20523;-85
2022/07/28 03:35:20;;;;;;;4.43;1.60;;;;;;;;;;4958191;28;20042;-85
2022/07/28 03:38:09;;;;;;;4.05;1.40;;;;;;;;;;4975583;28;20034;-85
2022/07/28 03:40:38;;;;;;;6.65;1.70;;;;;;;;;;4989150;28;20042;-84
2022/07/28 03:43:07;;;;;;;6.18;1.88;;;;;;;;;;4993067;28;20034;-85
2022/07/28 03:45:33;;;;;;;5.20;1.80;;;;;;;;;;4992813;28;20118;-85
2022/07/28 03:48:00;;;;;;;6.53;1.65;;;;;;;;;;5007918;28;20117;-84
2022/07/28 03:50:28;;;;;;;5.22;1.70;;;;;;;;;;4973527;28;20585;-84
2022/07/28 03:52:56;;;;;;;7.75;1.63;;;;;;;;;;4988262;28;20057;-84
2022/07/28 03:55:23;;;;;;;7.65;1.80;;;;;;;;;;4992843;28;20123;-85
2022/07/28 03:57:48;;;;;;;7.00;1.70;;;;;;;;;;4990744;28;20043;-85
2022/07/28 04:00:15;;;;;;;4.80;1.77;;;;;;;;;;4989504;28;20034;-85
2022/07/28 04:02:44;;;;;;;5.82;1.77;;;;;;;;;;4976136;28;20035;-84
2022/07/28 04:05:11;;;;;;;5.18;1.55;;;;;;;;;;4971420;28;20413;-85
2022/07/28 04:07:38;;;;;;;3.10;1.60;;;;;;;;;;4976792;28;20034;-85
2022/07/28 04:10:05;;;;;;;4.97;1.52;;;;;;;;;;4976032;28;20112;-84
2022/07/28 04:12:30;;;;;;;4.40;1.40;;;;;;;;;;4978526;28;20030;-84
2022/07/28 04:14:55;;;;;;;4.35;1.40;;;;;;;;;;4976803;28;20378;-84
2022/07/28 04:17:21;;;;;;;3.70;1.50;;;;;;;;;;4979907;28;20081;-84
2022/07/28 04:19:46;;;;;;;6.15;1.58;;;;;;;;;;4977866;28;20438;-84
2022/07/28 04:22:11;;;;;;;4.00;1.42;;;;;;;;;;4977153;28;20502;-84
2022/07/28 04:24:37;;;;;;;3.35;1.52;;;;;;;;;;4984768;28;20050;-84
2022/07/28 04:27:03;;;;;;;3.45;1.33;;;;;;;;;;4983409;28;20100;-83
2022/07/28 04:29:28;;;;;;;6.47;1.40;;;;;;;;;;4993006;28;20061;-83
2022/07/28 04:31:53;;;;;;;4.70;1.80;;;;;;;;;;4987290;28;20026;-84
2022/07/28 04:34:19;;;;;;;5.82;1.40;;;;;;;;;;4980490;28;20041;-84
2022/07/28 04:36:44;;;;;;;4.82;1.50;;;;;;;;;;4980778;28;20034;-84
2022/07/28 04:39:12;;;;;;;4.50;1.67;;;;;;;;;;4986546;28;20041;-84
2022/07/28 04:41:40;;;;;;;4.30;1.58;;;;;;;;;;4980026;28;20042;-85
2022/07/28 04:44:05;;;;;;;3.70;1.52;;;;;;;;;;4983209;28;20540;-85
2022/07/28 04:46:31;;;;;;;3.58;1.40;;;;;;;;;;4997557;28;20096;-84
2022/07/28 04:48:56;;;;;;;4.85;1.65;;;;;;;;;;4992511;28;20504;-84
2022/07/28 04:51:22;;;;;;;7.35;1.65;;;;;;;;;;4987247;28;20129;-84
2022/07/28 04:53:47;;;;;;;5.18;1.38;;;;;;;;;;4995708;28;20049;-84
2022/07/28 04:56:12;;;;;;;5.10;1.45;;;;;;;;;;4982652;28;20042;-83
2022/07/28 04:58:38;;;;;;;3.90;1.40;;;;;;;;;;4984891;28;20125;-84
2022/07/28 05:01:03;;;;;;;4.45;1.52;;;;;;;;;;4996743;28;20061;-84
2022/07/28 05:03:28;;;;;;;3.67;1.35;;;;;;;;;;4980404;28;20104;-84
2022/07/28 05:05:54;;;;;;;4.00;1.52;;;;;;;;;;4978657;28;20030;-84
2022/07/28 05:08:19;;;;;;;6.15;1.40;;;;;;;;;;4981033;28;20489;-84
2022/07/28 05:10:44;;;;;;;4.88;1.48;;;;;;;;;;4981455;28;20193;-84
2022/07/28 05:13:10;;;;;;;3.33;1.40;;;;;;;;;;4981943;28;20038;-84
2022/07/28 05:15:35;;;;;;;4.07;1.60;;;;;;;;;;4980027;28;20401;-84
2022/07/28 05:18:00;;;;;;;4.28;1.60;;;;;;;;;;4991629;28;20091;-85
2022/07/28 05:20:26;;;;;;;5.72;1.30;;;;;;;;;;4975593;28;20129;-85
2022/07/28 05:22:56;;;;;;;4.63;1.48;;;;;;;;;;4986091;28;20041;-85
2022/07/28 05:25:22;;;;;;;5.32;1.38;;;;;;;;;;4987310;28;20535;-85
2022/07/28 05:27:48;;;;;;;5.05;1.50;;;;;;;;;;4995735;28;20033;-84
2022/07/28 05:30:14;;;;;;;4.70;1.25;;;;;;;;;;4992623;28;20117;-84
2022/07/28 05:32:40;;;;;;;4.05;1.50;;;;;;;;;;4989575;28;20041;-84
2022/07/28 05:35:06;;;;;;;5.68;1.33;;;;;;;;;;5007802;28;20039;-85
2022/07/28 05:37:35;;;;;;;6.55;1.50;;;;;;;;;;4974926;28;25022;-84
2022/07/28 05:40:02;;;;;;;6.85;1.33;;;;;;;;;;4990768;28;20528;-84
2022/07/28 05:42:29;;;;;;;5.38;1.73;;;;;;;;;;4995040;28;20557;-85
2022/07/28 05:44:55;;;;;;;5.50;1.95;;;;;;;;;;4968769;28;20038;-85
2022/07/28 05:47:20;;;;;;;3.20;1.33;;;;;;;;;;4995583;28;20103;-85
2022/07/28 05:49:45;;;;;;;5.88;1.48;;;;;;;;;;4993865;28;20084;-84
2022/07/28 05:52:11;;;;;;;7.55;1.42;;;;;;;;;;4992164;28;20061;-84
2022/07/28 05:54:36;;;;;;;4.65;1.45;;;;;;;;;;4997211;28;20061;-85
2022/07/28 05:57:01;;;;;;;4.85;1.10;;;;;;;;;;4986670;28;20066;-84
2022/07/28 05:59:27;;;;;;;7.95;1.70;;;;;;;;;;4981748;28;20104;-85
2022/07/28 06:01:52;;;;;;;7.13;1.73;;;;;;;;;;4983765;28;20049;-85
2022/07/28 06:04:17;;;;;;;8.50;1.60;;;;;;;;;;4996435;28;20056;-85
2022/07/28 06:06:43;;;;;;;10.45;1.65;;;;;;;;;;4978768;28;20141;-85
2022/07/28 06:09:08;;;;;;;6.00;1.50;;;;;;;;;;4987161;28;20065;-84
2022/07/28 06:11:33;;;;;;;7.93;1.67;;;;;;;;;;4977253;28;20023;-85
2022/07/28 06:14:05;;;;;;;6.80;1.55;;;;;;;;;;4979662;28;20062;-85
2022/07/28 06:16:30;;;;;;;5.15;1.48;;;;;;;;;;4985831;28;20524;-85
2022/07/28 06:18:56;;;;;;;7.55;1.23;;;;;;;;;;4979928;28;20073;-87
2022/07/28 06:21:24;;;;;;;5.63;1.30;;;;;;;;;;4976875;28;20039;-86
2022/07/28 06:23:50;;;;;;;6.65;1.40;;;;;;;;;;5002066;28;20144;-86
2022/07/28 06:26:15;;;;;;;4.20;1.30;;;;;;;;;;4978740;28;20034;-86
2022/07/28 06:28:41;;;;;;;5.35;1.30;;;;;;;;;;4979655;28;20025;-88
2022/07/28 06:31:06;;;;;;;4.85;1.05;;;;;;;;;;4980545;28;20038;-87
2022/07/28 06:33:31;;;;;;;6.45;1.40;;;;;;;;;;4992860;28;20069;-88
2022/07/28 06:35:57;;;;;;;2.67;1.02;;;;;;;;;;4980639;28;20413;-87
2022/07/28 06:38:22;;;;;;;4.55;1.00;;;;;;;;;;4984421;28;20098;-87
2022/07/28 06:40:48;;;;;;;5.32;1.30;;;;;;;;;;4987803;28;20481;-86
2022/07/28 06:43:13;;;;;;;4.05;1.20;;;;;;;;;;4989475;28;20093;-86
2022/07/28 06:45:39;;;;;;;4.75;1.33;;;;;;;;;;4987313;28;20408;-86
2022/07/28 06:48:08;;;;;;;5.80;1.13;;;;;;;;;;4990492;28;20041;-86
2022/07/28 06:50:33;;;;;;;4.82;1.20;;;;;;;;;;4989959;28;20405;-87
2022/07/28 06:52:59;;;;;;;7.20;1.67;;;;;;;;;;4991166;28;20046;-85
2022/07/28 06:55:24;;;;;;;5.00;1.20;;;;;;;;;;4986538;28;20066;-86
2022/07/28 06:57:50;;;;;;;6.20;1.02;;;;;;;;;;4988025;28;20463;-88
2022/07/28 07:00:15;;;;;;;4.97;1.27;;;;;;;;;;4981288;28;20042;-87
2022/07/28 07:02:42;;;;;;;4.70;0.93;;;;;;;;;;4998529;28;20038;-87
2022/07/28 07:05:09;;;;;;;5.35;1.10;;;;;;;;;;4989514;28;20099;-88
2022/07/28 07:07:34;;;;;;;3.58;1.15;;;;;;;;;;4989781;28;20049;-88
2022/07/28 07:10:00;;;;;;;4.07;1.02;;;;;;;;;;4985756;28;20482;-89
2022/07/28 07:12:25;;;;;;;4.25;1.05;;;;;;;;;;4987236;28;20039;-86
2022/07/28 07:14:50;;;;;;;4.57;1.00;;;;;;;;;;4993718;28;20470;-86
2022/07/28 07:17:16;;;;;;;4.53;1.08;;;;;;;;;;4995816;28;20037;-85
2022/07/28 07:19:41;;;;;;;6.32;1.08;;;;;;;;;;4979521;28;20092;-88
2022/07/28 07:22:07;;;;;;;3.13;0.90;;;;;;;;;;4988435;28;20058;-88
2022/07/28 07:24:32;;;;;;;5.70;0.90;;;;;;;;;;4986821;28;20042;-88
2022/07/28 07:26:57;;;;;;;5.82;1.10;;;;;;;;;;4982649;28;20113;-87
2022/07/28 07:29:23;;;;;;;6.18;0.85;;;;;;;;;;4987995;28;20046;-89
2022/07/28 07:31:48;;;;;;;4.20;1.00;;;;;;;;;;4998997;28;20031;-89
2022/07/28 07:34:15;;;;;;;5.25;0.95;;;;;;;;;;4989674;28;20046;-87
2022/07/28 07:36:41;;;;;;;4.73;1.20;;;;;;;;;;4993624;28;20042;-88
2022/07/28 07:39:06;;;;;;;5.45;1.30;;;;;;;;;;4984748;28;20045;-85
2022/07/28 07:41:32;;;;;;;5.97;1.35;;;;;;;;;;4986416;28;20056;-84
2022/07/28 07:43:57;;;;;;;6.72;1.55;;;;;;;;;;4997349;28;20476;-85
2022/07/28 07:46:22;;;;;;;4.05;1.08;;;;;;;;;;4981959;28;20040;-84
2022/07/28 07:48:48;;;;;;;4.47;0.93;;;;;;;;;;4980019;28;20084;-86
2022/07/28 07:51:13;;;;;;;4.65;1.20;;;;;;;;;;4990519;28;20038;-85
2022/07/28 07:53:39;;;;;;;5.07;1.80;;;;;;;;;;4996654;28;20043;-87
2022/07/28 07:56:04;;;;;;;4.68;0.90;;;;;;;;;;4987183;28;20040;-87
2022/07/28 07:58:29;;;;;;;4.05;1.10;;;;;;;;;;4986646;28;20374;-79
2022/07/28 08:00:55;;;;;;;3.20;0.77;;;;;;;;;;4994489;28;20502;-78
2022/07/28 08:03:20;;;;;;;4.45;1.08;;;;;;;;;;5002728;28;20489;-78
2022/07/28 08:05:46;;;;;;;5.30;1.00;;;;;;;;;;5000051;28;20385;-78
2022/07/28 08:08:11;;;;;;;3.72;1.00;;;;;;;;;;4994657;28;20045;-78
2022/07/28 08:10:38;;;;;;;3.15;0.98;;;;;;;;;;4992467;28;20501;-78
2022/07/28 08:13:05;;;;;;;3.85;1.00;;;;;;;;;;4981770;28;20038;-77
2022/07/28 08:15:30;;;;;;;4.78;0.80;;;;;;;;;;4984157;28;20460;-78
2022/07/28 08:17:56;;;;;;;3.72;0.80;;;;;;;;;;4985414;28;20033;-77
2022/07/28 08:20:21;;;;;;;4.60;1.20;;;;;;;;;;5002427;28;20121;-77
2022/07/28 08:22:52;;;;;;;3.33;0.93;;;;;;;;;;4985174;28;20041;-76
2022/07/28 08:25:20;;;;;;;3.42;0.90;;;;;;;;;;5001248;28;20042;-81
2022/07/28 08:27:46;;;;;;;2.78;0.77;;;;;;;;;;4997962;28;20034;-82
2022/07/28 08:30:13;;;;;;;3.53;0.65;;;;;;;;;;4985381;28;20061;-81
2022/07/28 08:32:39;;;;;;;;;;;;;;;;;;5001751;28;20118;-81
2022/07/28 08:35:05;;;;;;;3.92;0.93;;;;;;;;;;4992848;28;20424;-81
2022/07/28 08:37:30;;;;;;;5.03;1.15;;;;;;;;;;4984315;28;20058;-82
2022/07/28 08:39:55;;;;;;;3.72;0.82;;;;;;;;;;4987776;28;20038;-82
2022/07/28 08:42:27;;;;;;;4.15;0.73;;;;;;;;;;4991006;28;20034;-80
2022/07/28 08:44:53;;;;;;;3.83;0.82;;;;;;;;;;4999955;28;20045;-82
2022/07/28 08:47:20;;;;;;;4.83;1.23;;;;;;;;;;4989226;28;20049;-81
2022/07/28 08:49:46;;;;;;;5.43;1.00;;;;;;;;;;4991995;28;20282;-81
2022/07/28 08:52:12;;;;;;;4.05;0.80;;;;;;;;;;4999382;28;20201;-81
2022/07/28 08:54:44;;;;;;;3.35;0.90;;;;;;;;;;5002290;28;20038;-83
2022/07/28 08:57:16;;;;;;;2.60;0.70;;;;;;;;;;4984405;28;20721;-82
2022/07/28 08:59:42;;;;;;;5.18;0.95;;;;;;;;;;4966008;28;20093;-82
2022/07/28 09:02:10;;;;;;;4.80;0.80;;;;;;;;;;4985026;28;20050;-82
2022/07/28 09:04:37;;;;;;;4.40;0.70;;;;;;;;;;4989475;28;20037;-82
2022/07/28 09:07:03;;;;;;;;;;;;;;;;;;4988591;28;20840;-82
2022/07/28 09:09:28;;;;;;;3.03;0.70;;;;;;;;;;4998679;28;19948;-83
2022/07/28 09:11:54;;;;;;;3.92;0.85;;;;;;;;;;4990069;28;20507;-83
2022/07/28 09:14:19;;;;;;;3.17;0.50;;;;;;;;;;4984264;28;20034;-82
2022/07/28 09:16:44;;;;;;;3.35;0.70;;;;;;;;;;4983369;28;20037;-81
2022/07/28 09:19:10;;;;;;;3.20;0.70;;;;;;;;;;4997354;28;20580;-83
2022/07/28 09:21:35;;;;;;;1.88;0.60;;;;;;;;;;5000732;28;20042;-82
2022/07/28 09:24:01;;;;;;;2.20;0.60;;;;;;;;;;4979434;28;20509;-83
2022/07/28 09:26:26;;;;;;;3.72;0.90;;;;;;;;;;4979653;28;20035;-81
2022/07/28 09:28:54;;;;;;;2.85;0.63;;;;;;;;;;5004579;28;20039;-82
2022/07/28 09:31:21;;;;;;;2.30;0.60;;;;;;;;;;4995526;28;20088;-82
2022/07/28 09:33:55;;;;;;;2.90;0.70;;;;;;;;;;4980553;28;20038;-82
2022/07/28 09:36:21;;;;;;;2.67;0.40;;;;;;;;;;4992417;28;20105;-81
2022/07/28 09:38:46;;;;;;;2.13;0.60;;;;;;;;;;4987565;28;20037;-78
2022/07/28 09:41:13;;;;;;;1.73;0.50;;;;;;;;;;4999991;28;20043;-78
2022/07/28 09:43:41;;;;;;;1.38;0.30;;;;;;;;;;4999679;28;20038;-78
2022/07/28 09:46:10;;;;;;;1.95;0.50;;;;;;;;;;4997244;28;20559;-79
2022/07/28 09:48:48;;;;;;;4.47;0.73;;;;;;;;;;4996219;28;20034;-79
2022/07/28 09:51:24;;;;;;;3.00;0.60;;;;;;;;;;5001147;28;20422;-79
2022/07/28 09:53:51;;;;;;;3.20;0.75;;;;;;;;;;4997699;28;20037;-79
2022/07/28 09:56:17;;;;;;;2.53;0.57;;;;;;;;;;5001135;28;20034;-79
2022/07/28 09:58:52;;;;;;;4.05;0.88;;;;;;;;;;4989049;28;20030;-78
2022/07/28 10:01:19;;;;;;;3.05;0.60;;;;;;;;;;4994084;28;20049;-78
2022/07/28 10:03:51;;;;;;;3.85;0.80;;;;;;;;;;4979926;28;20101;-79
2022/07/28 10:06:27;;;;;;;3.28;0.80;;;;;;;;;;5004700;28;20370;-79
2022/07/28 10:08:54;;;;;;;2.45;0.50;;;;;;;;;;4986648;28;20431;-79
2022/07/28 10:11:25;;;;;;;5.15;0.65;;;;;;;;;;4984066;28;20034;-79
2022/07/28 10:13:53;;;;;;;4.65;0.65;;;;;;;;;;4989062;28;20040;-79
2022/07/28 10:16:20;;;;;;;3.40;0.50;;;;;;;;;;4996942;28;20043;-80
2022/07/28 10:18:49;;;;;;;2.88;0.52;;;;;;;;;;4987131;28;20589;-80
2022/07/28 10:21:17;;;;;;;4.00;0.47;;;;;;;;;;4989341;28;20038;-78
2022/07/28 10:23:51;;;;;;;2.80;0.50;;;;;;;;;;4989051;28;20072;-78
2022/07/28 10:26:20;;;;;;;3.13;0.47;;;;;;;;;;4975149;28;20116;-78
2022/07/28 10:28:50;;;;;;;2.08;0.52;;;;;;;;;;4979812;28;20390;-78
2022/07/28 10:31:39;;;;;;;2.88;0.70;;;;;;;;;;4998451;28;20030;-78
2022/07/28 10:34:09;;;;;;;3.95;0.60;;;;;;;;;;4997293;28;20077;-79
2022/07/28 10:36:34;;;;;;;2.47;0.68;;;;;;;;;;4966512;28;20045;-79
2022/07/28 10:39:04;;;;;;;1.60;0.50;;;;;;;;;;4988741;28;20501;-78
2022/07/28 10:41:38;;;;;;;2.33;0.40;;;;;;;;;;4990796;28;20106;-79
2022/07/28 10:44:04;;;;;;;1.92;0.40;;;;;;;;;;5000589;28;20038;-79
2022/07/28 10:46:31;;;;;;;2.03;0.40;;;;;;;;;;4982919;28;20547;-78
2022/07/28 10:48:57;;;;;;;2.95;0.68;;;;;;;;;;4969272;28;20068;-78
2022/07/28 10:51:23;;;;;;;1.87;0.47;;;;;;;;;;4985429;28;20836;-79
2022/07/28 10:54:01;;;;;;;3.78;0.60;;;;;;;;;;4979594;28;20038;-79
2022/07/28 10:56:33;;;;;;;3.88;0.68;;;;;;;;;;5004162;28;20034;-79
2022/07/28 10:59:04;;;;;;;3.92;0.52;;;;;;;;;;4995719;28;20094;-78
2022/07/28 11:01:36;;;;;;;2.72;0.60;;;;;;;;;;5004957;28;20400;-77
2022/07/28 11:04:02;;;;;;;3.35;0.60;;;;;;;;;;4984730;28;20034;-78
2022/07/28 11:06:44;;;;;;;1.48;0.50;;;;;;;;;;4973517;28;20038;-78
2022/07/28 11:09:16;;;;;;;2.50;0.63;;;;;;;;;;4966643;28;20386;-78
2022/07/28 11:11:42;;;;;;;2.28;0.50;;;;;;;;;;4996527;28;20042;-78
2022/07/28 11:14:28;;;;;;;3.00;0.43;;;;;;;;;;4990590;28;20121;-79
2022/07/28 11:16:59;;;;;;;2.78;0.70;;;;;;;;;;5008926;28;20038;-78
2022/07/28 11:19:26;;;;;;;1.90;0.40;;;;;;;;;;4993880;28;20494;-78
2022/07/28 11:22:13;;;;;;;2.67;0.50;;;;;;;;;;4988196;28;20038;-78
2022/07/28 11:25:11;;;;;;;1.95;0.40;;;;;;;;;;5004699;28;20034;-78
2022/07/28 11:27:44;;;;;;;2.65;0.57;;;;;;;;;;4965683;28;20489;-77
2022/07/28 11:30:31;;;;;;;4.25;0.90;;;;;;;;;;4993598;28;20100;-78
2022/07/28 11:32:59;;;;;;;;;;;;;;;;;;5007094;28;20334;-78
2022/07/28 11:35:31;;;;;;;4.50;0.65;;;;;;;;;;5001523;28;19921;-78
2022/07/28 11:37:59;;;;;;;2.90;0.60;;;;;;;;;;4985114;28;20040;-79
2022/07/28 11:40:44;;;;;;;2.10;0.40;;;;;;;;;;5002854;28;20042;-79
2022/07/28 11:43:25;;;;;;;1.90;0.60;;;;;;;;;;4983279;28;20466;-79
2022/07/28 11:45:59;;;;;;;2.65;0.57;;;;;;;;;;5002387;28;20116;-78
2022/07/28 11:48:25;;;;;;;2.17;0.60;;;;;;;;;;4995184;28;20046;-79
2022/07/28 11:51:09;;;;;;;1.63;0.40;;;;;;;;;;4995273;28;20048;-79
2022/07/28 11:53:41;;;;;;;5.82;1.00;;;;;;;;;;4981630;28;20035;-80
2022/07/28 11:56:08;;;;;;;5.60;0.70;;;;;;;;;;5006406;28;20066;-80
2022/07/28 11:58:34;;;;;;;3.80;0.52;;;;;;;;;;5000662;28;20137;-80
2022/07/28 12:01:14;;;;;;;2.88;0.60;;;;;;;;;;5000031;28;20536;-80
2022/07/28 12:03:41;;;;;;;2.10;0.50;;;;;;;;;;5009635;28;20037;-80
2022/07/28 12:06:10;;;;;;;1.95;0.50;;;;;;;;;;4993105;28;20034;-79
2022/07/28 12:09:02;;;;;;;1.98;0.50;;;;;;;;;;4993387;28;20030;-80
2022/07/28 12:11:32;;;;;;;2.33;0.35;;;;;;;;;;5009013;28;20069;-81
2022/07/28 12:14:02;;;;;;;1.23;0.38;;;;;;;;;;4985467;28;20074;-80
2022/07/28 12:16:28;;;;;;;2.47;0.50;;;;;;;;;;4973160;28;20558;-81
2022/07/28 12:18:54;;;;;;;2.37;0.43;;;;;;;;;;5000161;28;20502;-81
2022/07/28 12:21:42;;;;;;;3.90;0.63;;;;;;;;;;5010722;28;20090;-80
2022/07/28 12:24:10;;;;;;;2.72;0.60;;;;;;;;;;4989284;28;20037;-80
2022/07/28 12:26:37;;;;;;;2.75;0.60;;;;;;;;;;4996868;28;20508;-80
2022/07/28 12:29:06;;;;;;;3.30;0.80;;;;;;;;;;4984657;28;20563;-80
2022/07/28 12:31:32;;;;;;;2.20;0.60;;;;;;;;;;5002060;28;20040;-80
2022/07/28 12:34:10;;;;;;;3.50;0.75;;;;;;;;;;4991668;28;20042;-80
2022/07/28 12:36:37;;;;;;;2.83;0.52;;;;;;;;;;4987141;28;20042;-80
2022/07/28 12:39:06;;;;;;;2.75;0.88;;;;;;;;;;5000149;28;20038;-80
2022/07/28 12:41:33;;;;;;;2.65;0.85;;;;;;;;;;4988269;28;20035;-80
2022/07/28 12:44:02;;;;;;;2.83;0.80;;;;;;;;;;4981284;28;20031;-82
2022/07/28 12:46:29;;;;;;;3.47;0.60;;;;;;;;;;4983823;28;20033;-80
2022/07/28 12:48:56;;;;;;;3.38;0.60;;;;;;;;;;4991582;28;20472;-79
2022/07/28 12:51:41;;;;;;;3.42;0.50;;;;;;;;;;4984357;28;20128;-80
2022/07/28 12:54:08;;;;;;;2.70;0.68;;;;;;;;;;4996682;28;20041;-81
2022/07/28 12:56:51;;;;;;;2.17;0.55;;;;;;;;;;4986844;28;20045;-80
2022/07/28 12:59:18;;;;;;;2.67;1.05;;;;;;;;;;4989910;28;20501;-85
2022/07/28 13:01:52;;;;;;;1.55;0.50;;;;;;;;;;4985885;28;20126;-85
2022/07/28 13:04:45;;;;;;;2.88;0.70;;;;;;;;;;4987749;28;20042;-86
2022/07/28 13:07:14;;;;;;;3.38;0.57;;;;;;;;;;4993580;28;20054;-85
2022/07/28 13:09:45;;;;;;;3.80;0.75;;;;;;;;;;4965269;28;20049;-85
2022/07/28 13:12:21;;;;;;;5.50;0.90;;;;;;;;;;4993671;28;20047;-85
2022/07/28 13:14:52;;;;;;;6.57;1.10;;;;;;;;;;4987856;28;20042;-85
2022/07/28 13:17:18;;;;;;;3.22;0.45;;;;;;;;;;4997096;28;20501;-85
2022/07/28 13:19:45;;;;;;;3.20;0.80;;;;;;;;;;4983755;28;20034;-85
2022/07/28 13:22:10;;;;;;;5.20;0.88;;;;;;;;;;4981151;28;20489;-86
2022/07/28 13:24:36;;;;;;;1.80;0.60;;;;;;;;;;4979832;28;20052;-86
2022/07/28 13:27:02;;;;;;;4.53;0.82;;;;;;;;;;4981381;28;20030;-85
2022/07/28 13:29:32;;;;;;;3.55;0.85;;;;;;;;;;4979584;28;20109;-86
2022/07/28 13:31:57;;;;;;;4.80;0.73;;;;;;;;;;4988153;28;20099;-85
2022/07/28 13:34:22;;;;;;;2.63;0.90;;;;;;;;;;4984936;28;20135;-85
2022/07/28 13:36:48;;;;;;;3.47;0.75;;;;;;;;;;4978371;28;20105;-85
2022/07/28 13:39:13;;;;;;;2.50;0.90;;;;;;;;;;4985006;28;20065;-85
2022/07/28 13:41:39;;;;;;;4.35;0.90;;;;;;;;;;4972591;28;20064;-84
2022/07/28 13:44:25;;;;;;;4.30;0.70;;;;;;;;;;4969921;28;20038;-84
2022/07/28 13:46:50;;;;;;;4.25;0.60;;;;;;;;;;5002038;28;20034;-86
2022/07/28 13:49:16;;;;;;;2.35;0.60;;;;;;;;;;4986193;28;20451;-86
2022/07/28 13:51:41;;;;;;;2.08;0.63;;;;;;;;;;4977120;28;20041;-85
2022/07/28 13:54:06;;;;;;;3.55;0.80;;;;;;;;;;4976284;28;20453;-85
2022/07/28 13:56:37;;;;;;;2.55;0.52;;;;;;;;;;4973920;28;20509;-85
2022/07/28 13:59:02;;;;;;;2.70;0.60;;;;;;;;;;4971407;28;20068;-84
2022/07/28 14:01:28;;;;;;;3.22;0.60;;;;;;;;;;4971076;28;20541;-86
2022/07/28 14:03:53;;;;;;;1.77;0.50;;;;;;;;;;4968145;28;20044;-85
2022/07/28 14:06:18;;;;;;;3.78;0.82;;;;;;;;;;4983256;28;20552;-86
2022/07/28 14:08:44;;;;;;;3.05;0.70;;;;;;;;;;4971122;28;20493;-86
2022/07/28 14:11:09;;;;;;;3.47;0.80;;;;;;;;;;4974683;28;20050;-85
2022/07/28 14:13:35;;;;;;;3.30;1.00;;;;;;;;;;4972745;28;20069;-86
2022/07/28 14:16:01;;;;;;;2.78;0.68;;;;;;;;;;4963233;28;20566;-86
2022/07/28 14:18:27;;;;;;;2.47;0.70;;;;;;;;;;4980893;28;20331;-86
2022/07/28 14:20:52;;;;;;;2.20;0.70;;;;;;;;;;4963886;28;20037;-86
2022/07/28 14:23:17;;;;;;;2.58;0.60;;;;;;;;;;4974695;28;20069;-86
2022/07/28 14:25:43;;;;;;;3.47;0.68;;;;;;;;;;4981264;28;20030;-85
2022/07/28 14:28:08;;;;;;;2.83;0.70;;;;;;;;;;4997136;28;20046;-82
2022/07/28 14:30:36;;;;;;;3.78;0.60;;;;;;;;;;4996795;28;20068;-81
2022/07/28 14:33:04;;;;;;;2.40;0.70;;;;;;;;;;4986247;28;20089;-81
2022/07/28 14:35:31;;;;;;;3.75;0.60;;;;;;;;;;4999294;28;20044;-81
2022/07/28 14:37:56;;;;;;;2.97;0.60;;;;;;;;;;4999058;28;20128;-81
2022/07/28 14:40:22;;;;;;;1.27;0.50;;;;;;;;;;4986374;28;20117;-80
2022/07/28 14:42:48;;;;;;;3.05;0.80;;;;;;;;;;4985132;28;20030;-81
2022/07/28 14:45:14;;;;;;;2.08;0.50;;;;;;;;;;4989986;28;20394;-80
2022/07/28 14:47:39;;;;;;;2.17;0.80;;;;;;;;;;4986236;28;20121;-80